• Join FlightAware (Why Join?)
  • Login
  • US Flag 
12:52PM EST


 

Airport Tracker/Info


-or-


 

Live Flight TrackerFlight Track Log ✈ DAL6246 ✈ 28-Apr-2013 ✈ KILM - KLGA

Flight Track Log - Related Links

Times and Time Zones

All times are in EDT time to prevent confusion due to time zone crossing. See the DAL6246 flight status page for this flight to view local times or setup timezone preferences in your user account.

Time Position Orientation Groundspeed Altitude Reporting Facility
EDT Latitude Longitude Course Direction KTS MPH feet Rate Location/Type
09:12AM 34.3675 -77.8439 North 224 258 4,400  Level Washington Center
09:13AM 34.4408 -77.8358 North 242 278 6,800 2,628 Climbing Washington Center
09:14AM 34.5203 -77.8303 North 265 305 9,700 2,557 Climbing Washington Center
09:15AM 34.6017 -77.8225 North 278 320 12,000 2,067 Climbing Washington Center
09:16AM 34.8794 -77.8167 North  Level FlightAware Approximate
09:16AM 34.6936 -77.8150 North 307 353 13,800  Level Washington Center
09:17AM 34.9812 -77.7955 North  Level FlightAware Approximate
09:17AM 34.7919 -77.8075 North 332 382 15,800  Level Washington Center
09:18AM 34.8903 -77.7950 North 345 397 17,900 1,785 Climbing Washington Center
09:19AM 34.9925 -77.7875 North 355 409 19,400 1,488 Climbing Washington Center
09:20AM 35.0992 -77.7778 North 366 421 20,900 1,525 Climbing Washington Center
09:21AM 35.2097 -77.7706 North 376 433 22,400 1,462 Climbing Washington Center
09:22AM 35.3228 -77.7583 North 396 456 23,800 1,279 Climbing Washington Center
09:23AM 35.4397 -77.7489 North 407 468 25,000 605 Climbing Washington Center
09:24AM 35.5589 -77.7367 North 419 482 25,000 403 Level Washington Center
09:25AM 35.6864 -77.7272 North 431 496 25,800 1,082 Climbing Washington Center
09:26AM 35.8075 -77.7178 North 442 509 27,200 1,240 Climbing Washington Center
09:27AM 35.9197 -77.7492 347° North 431 496 28,300 966 Climbing Washington Center
09:28AM 36.0142 -77.8286 326° Northwest 405 466 29,100 857 Climbing Washington Center
09:29AM 36.1106 -77.9111 325° Northwest 405 466 30,000 787 Climbing Washington Center
09:30AM 36.2028 -77.9961 323° Northwest 412 474 30,700 763 Climbing Washington Center
09:30AM 36.2972 -78.0814 324° Northwest 423 487 31,500 915 Climbing Washington Center
09:32AM 36.4042 -78.1469 334° Northwest 423 487 32,500 732 Climbing Washington Center
09:33AM 36.5233 -78.1378 North 411 473 33,000 590 Climbing Washington Center
09:34AM 36.6333 -78.0611 29° Northeast 403 464 33,700 864 Climbing Washington Center
09:35AM 36.7336 -77.9633 38° Northeast 420 483 34,700 814 Climbing Washington Center
09:36AM 36.8333 -77.8678 37° Northeast 440 506 35,300 595 Climbing Washington Center
09:37AM 36.9353 -77.7667 38° Northeast 451 519 35,900 744 Climbing Washington Center
09:38AM 37.0353 -77.6681 38° Northeast 457 526 36,800 559 Climbing Washington Center
09:38AM 37.1450 -77.5931 29° Northeast 457 526 37,000 101 Climbing Washington Center
09:40AM 37.2622 -77.5700 North 428 493 37,000  Level Washington Center
09:41AM 37.3817 -77.5417 11° North 428 493 37,000  Level Washington Center
09:42AM 37.4872 -77.4553 33° Northeast 428 493 37,000  Level Washington Center
09:43AM 37.5664 -77.3289 52° Northeast 428 493 37,000  Level Washington Center
09:44AM 37.6433 -77.1942 54° Northeast 443 510 37,000  Level Washington Center
09:45AM 37.7283 -77.0542 52° Northeast 450 518 37,000  Level Washington Center
09:46AM 37.8008 -76.9242 55° Northeast 455 524 37,000 -197 Level Washington Center
09:47AM 37.8650 -76.7833 60° Northeast 455 524 36,600 -857 Descending Washington Center
09:48AM 37.8831 -76.6153 82° East 456 525 35,300 -1,412 Descending Washington Center
09:49AM 37.9197 -76.4606 73° East 456 525 33,800 -1,537 Descending Washington Center
09:50AM 38.0164 -76.3772 34° Northeast 409 471 32,200 -1,377 Descending Washington Center
09:51AM 38.1289 -76.3625 North 374 430 31,000 -605 Descending Washington Center
09:52AM 38.2311 -76.3583 North 385 443 31,000  Level Washington Center
09:53AM 38.3439 -76.3461 North 393 452 31,000 -694 Level Washington Center
09:54AM 38.4506 -76.2678 30° Northeast 407 468 29,600 -1,438 Descending Washington Center
09:55AM 38.5492 -76.1625 40° Northeast 430 495 28,100 -1,289 Descending Washington Center
09:56AM 38.6622 -76.0569 36° Northeast 446 513 27,000 -559 Descending Washington Center
09:57AM 38.7564 -75.9644 37° Northeast 441 507 27,000  Level Washington Center
09:58AM 38.8547 -75.8769 35° Northeast 436 502 27,000  Level Washington Center
09:59AM 38.9528 -75.7786 38° Northeast 436 502 27,000  Level Washington Center
10:00AM 39.0528 -75.6906 34° Northeast 436 502 27,000  Level Washington Center
10:01AM 39.1467 -75.5997 37° Northeast 431 496 27,000  Level Washington Center
10:02AM 39.2425 -75.5086 36° Northeast 431 496 27,000  Level Washington Center
10:03AM 39.3425 -75.4197 34° Northeast 431 496 27,000 -787 Level Washington Center
10:04AM 39.4425 -75.3308 34° Northeast 431 496 25,400 -1,884 Descending Washington Center
10:05AM 39.5400 -75.2417 35° Northeast 431 496 23,200 -2,136 Descending Washington Center
10:06AM 39.6294 -75.1606 35° Northeast 419 482 21,200 -2,000 Descending Washington Center
10:07AM 39.7103 -75.0872 35° Northeast 379 436 19,200 -1,574 Descending Washington Center
10:08AM 39.7831 -75.0219 35° Northeast 346 398 18,000 -1,600 Descending Washington Center
10:09AM 39.8700 -74.9481 33° Northeast 346 398 16,000 -1,714 Descending Washington Center
10:10AM 39.9364 -74.8825 37° Northeast 341 392 14,600 -1,513 Descending Washington Center
10:11AM 39.9922 -74.8008 48° Northeast 320 368 13,000 -1,733 Descending Washington Center
10:12AM 40.0667 -74.6833 50° Northeast 290 334 10,700 -1,338 Descending New York TRACON
10:13AM 40.1167 -74.6167 46° Northeast 283 326 10,100 -298 Descending New York TRACON
10:14AM 40.1833 -74.5333 44° Northeast 291 335 10,100  Level New York TRACON
10:15AM 40.2333 -74.4500 52° Northeast 291 335 10,100 -250 Level New York TRACON
10:16AM 40.2833 -74.3833 45° Northeast 289 333 9,600 -1,000 Descending New York TRACON
10:17AM 40.3500 -74.3167 37° Northeast 276 318 8,100 -1,250 Descending New York TRACON
10:18AM 40.4000 -74.2500 45° Northeast 276 318 7,100 -500 Descending New York TRACON
10:19AM 40.4500 -74.1667 52° Northeast 278 320 7,100 -50 Level New York TRACON
10:20AM 40.5167 -74.1000 37° Northeast 276 318 7,000 -800 Descending New York TRACON
10:21AM 40.5833 -74.0667 21° North 278 320 5,500 -1,474 Descending New York TRACON
10:22AM 40.6500 -74.0500 11° North 268 308 4,200 -700 Descending New York TRACON
10:23AM 40.7333 -74.0167 17° North 270 311 4,100 -48 Descending New York TRACON
10:24AM 40.8000 -73.9833 21° North 274 315 4,100 -100 Level New York TRACON
10:25AM 40.8667 -73.9333 30° Northeast 270 311 3,900 -500 Descending New York TRACON
10:26AM 40.9167 -73.8833 37° Northeast 262 302 3,100 -450 Descending New York TRACON
10:27AM 40.9667 -73.8167 45° Northeast 233 268 3,000  Descending New York TRACON
10:28AM 40.9500 -73.7833 123° Southeast 195 224 3,100 111 Climbing New York TRACON